createdAt,value
2024-03-02T00:02:20.757Z,48.10
2024-03-02T00:05:24.745Z,48.50
2024-03-02T00:08:27.897Z,48.50
2024-03-02T00:11:30.797Z,52.08
2024-03-02T00:14:36.909Z,33.53
2024-03-02T00:17:39.834Z,29.92
2024-03-02T00:20:45.863Z,29.55
2024-03-02T00:23:51.020Z,45.08
2024-03-02T00:26:57.493Z,44.63
2024-03-02T00:30:02.652Z,45.35
2024-03-02T00:33:09.248Z,36.30
2024-03-02T00:36:16.452Z,36.58
2024-03-02T00:42:25.142Z,35.95
2024-03-02T00:45:27.935Z,35.53
2024-03-02T00:48:32.965Z,33.33
2024-03-02T00:51:36.139Z,25.17
2024-03-02T00:54:39.104Z,29.77
2024-03-02T00:57:42.072Z,30.30
2024-03-02T01:00:50.505Z,31.95
2024-03-02T01:03:54.612Z,32.70
2024-03-02T01:06:58.005Z,26.05
2024-03-02T01:10:01.021Z,24.20
2024-03-02T01:13:03.961Z,23.48
2024-03-02T01:16:09.734Z,20.33
2024-03-02T01:19:16.892Z,27.20
2024-03-02T01:22:25.339Z,26.45
2024-03-02T01:25:28.652Z,26.70
2024-03-02T01:28:31.793Z,23.45
2024-03-02T01:31:34.690Z,27.73
2024-03-02T01:34:37.922Z,20.20
2024-03-02T01:37:40.631Z,18.67
2024-03-02T01:40:43.706Z,20.30
2024-03-02T01:43:48.949Z,16.83
2024-03-02T01:46:52.374Z,21.90
2024-03-02T01:49:55.276Z,16.30
2024-03-02T01:52:58.332Z,20.52
2024-03-02T01:56:01.136Z,21.17
2024-03-02T01:59:05.129Z,17.48
2024-03-02T02:02:08.235Z,14.52
2024-03-02T02:05:11.615Z,14.13
2024-03-02T02:08:20.485Z,15.85
2024-03-02T02:11:23.268Z,18.10
2024-03-02T02:14:26.027Z,16.30
2024-03-02T02:17:28.867Z,17.48
2024-03-02T02:20:31.695Z,20.90
2024-03-02T02:23:34.590Z,24.42
2024-03-02T02:26:37.728Z,18.58
2024-03-02T02:29:40.472Z,20.88
2024-03-02T02:32:43.401Z,14.52
2024-03-02T02:36:07.967Z,17.33
2024-03-02T02:39:19.401Z,18.27
2024-03-02T02:42:22.400Z,16.98
2024-03-02T02:45:25.479Z,17.02
2024-03-02T02:48:28.486Z,18.00
2024-03-02T02:51:31.413Z,16.10
2024-03-02T02:54:34.343Z,22.42
2024-03-02T02:57:39.204Z,13.68
2024-03-02T03:00:42.207Z,16.80
2024-03-02T03:03:47.741Z,12.52
2024-03-02T03:06:54.644Z,17.65
2024-03-02T03:09:58.861Z,13.32
2024-03-02T03:13:02.010Z,16.50
2024-03-02T03:16:06.155Z,16.88
2024-03-02T03:19:11.978Z,18.08
2024-03-02T03:22:15.970Z,17.92
2024-03-02T03:25:19.137Z,15.75
2024-03-02T03:28:22.286Z,16.38
2024-03-02T03:31:27.274Z,18.33
2024-03-02T03:34:30.533Z,20.80
2024-03-02T03:37:36.221Z,17.77
2024-03-02T03:40:39.127Z,17.98
2024-03-02T03:43:41.961Z,18.05
2024-03-02T03:46:46.861Z,17.67
2024-03-02T03:49:50.314Z,17.92
2024-03-02T03:52:53.380Z,15.45
2024-03-02T03:55:56.176Z,17.52
2024-03-02T03:59:01.245Z,16.02
2024-03-02T04:02:06.691Z,16.80
2024-03-02T04:05:14.041Z,22.80
2024-03-02T04:08:19.206Z,18.40
2024-03-02T04:11:29.578Z,22.23
2024-03-02T04:14:32.776Z,25.73
2024-03-02T04:17:39.892Z,26.63
2024-03-02T04:20:42.693Z,28.58
2024-03-02T04:23:45.556Z,25.05
2024-03-02T04:26:48.553Z,25.58
2024-03-02T04:29:51.524Z,29.45
2024-03-02T04:32:57.871Z,25.40
2024-03-02T04:36:00.787Z,27.67
2024-03-02T04:39:04.808Z,21.60
2024-03-02T04:42:07.777Z,23.23
2024-03-02T04:45:10.813Z,21.92
2024-03-02T04:48:16.469Z,18.23
2024-03-02T04:51:19.302Z,20.40
2024-03-02T04:54:25.810Z,24.42
2024-03-02T04:57:28.850Z,19.70
2024-03-02T05:00:32.393Z,23.73
2024-03-02T05:03:36.555Z,20.73
2024-03-02T05:06:42.870Z,40.25
2024-03-02T05:09:53.458Z,26.63
2024-03-02T05:13:01.307Z,26.80
2024-03-02T05:16:06.854Z,25.75
2024-03-02T05:19:14.455Z,28.40
2024-03-02T05:22:21.878Z,20.55
2024-03-02T05:25:32.353Z,23.00
2024-03-02T05:28:35.395Z,23.33
2024-03-02T05:31:38.332Z,28.23
2024-03-02T05:34:41.431Z,16.25
2024-03-02T05:37:44.266Z,21.85
2024-03-02T05:40:47.460Z,17.70
2024-03-02T05:43:51.096Z,19.35
2024-03-02T05:46:54.384Z,20.38
2024-03-02T05:49:57.194Z,19.25
2024-03-02T05:53:00.288Z,22.77
2024-03-02T05:56:05.508Z,25.02
2024-03-02T05:59:18.488Z,21.52
2024-03-02T06:02:21.468Z,24.98
2024-03-02T06:05:24.429Z,21.52
2024-03-02T06:08:27.450Z,23.75
2024-03-02T06:11:30.567Z,21.80
2024-03-02T06:14:40.632Z,19.50
2024-03-02T06:17:44.129Z,21.05
2024-03-02T06:20:47.653Z,18.90
2024-03-02T06:23:50.462Z,21.40
2024-03-02T06:26:54.087Z,20.20
2024-03-02T06:29:57.019Z,29.17
2024-03-02T06:33:00.085Z,24.05
2024-03-02T06:36:03.793Z,19.73
2024-03-02T06:39:07.143Z,27.77
2024-03-02T06:42:13.535Z,22.27
2024-03-02T06:45:16.557Z,22.23
2024-03-02T06:48:21.619Z,25.00
2024-03-02T06:51:26.014Z,29.23
2024-03-02T06:54:30.193Z,35.08
2024-03-02T07:00:51.618Z,44.67
2024-03-02T07:03:54.946Z,39.15
2024-03-02T07:06:58.235Z,36.10
2024-03-02T07:10:01.572Z,29.63
2024-03-02T07:13:04.994Z,28.95
2024-03-02T07:16:38.904Z,20.00
2024-03-02T07:19:44.459Z,19.42
2024-03-02T07:22:47.712Z,22.85
2024-03-02T07:29:19.200Z,24.35
2024-03-02T07:32:50.858Z,22.75
2024-03-02T07:35:55.164Z,24.80
2024-03-02T07:39:09.345Z,22.33
2024-03-02T07:42:12.230Z,23.35
2024-03-02T07:45:15.239Z,26.50
2024-03-02T07:48:18.450Z,18.85
2024-03-02T07:51:26.891Z,23.50
2024-03-02T07:54:29.992Z,21.63
2024-03-02T07:57:33.687Z,24.17
2024-03-02T08:00:37.153Z,19.92
2024-03-02T08:03:39.912Z,23.80
2024-03-02T08:06:42.914Z,21.40
2024-03-02T08:09:45.826Z,24.48
2024-03-02T08:12:54.978Z,21.85
2024-03-02T08:15:58.569Z,24.80
2024-03-02T08:19:02.184Z,25.58
2024-03-02T08:22:08.215Z,24.88
2024-03-02T08:25:11.503Z,34.30
2024-03-02T08:28:14.598Z,35.88
2024-03-02T08:31:17.458Z,35.13
2024-03-02T08:34:20.737Z,34.53
2024-03-02T08:37:23.768Z,35.80
2024-03-02T08:40:31.619Z,34.63
2024-03-02T08:43:34.796Z,38.22
2024-03-02T08:46:38.014Z,34.25
2024-03-02T08:49:41.151Z,37.33
2024-03-02T08:52:44.644Z,39.05
2024-03-02T08:56:07.612Z,65.65
2024-03-02T08:59:11.019Z,51.20
2024-03-02T09:02:17.163Z,37.63
2024-03-02T09:05:20.925Z,32.83
2024-03-02T09:08:23.771Z,48.60
2024-03-02T09:11:30.950Z,46.90
2024-03-02T09:18:05.918Z,72.65
2024-03-02T09:24:58.163Z,41.10
2024-03-02T09:28:17.697Z,45.10
2024-03-02T09:31:21.189Z,34.25
2024-03-02T09:34:47.655Z,43.25
2024-03-02T09:41:24.142Z,34.35
2024-03-02T09:44:37.459Z,29.13
2024-03-02T09:47:40.453Z,32.88
2024-03-02T09:50:46.318Z,36.33
2024-03-02T09:54:06.438Z,45.08
2024-03-02T09:58:08.658Z,32.55
2024-03-02T10:01:21.806Z,30.55
2024-03-02T10:07:37.925Z,33.95
2024-03-02T10:11:05.636Z,30.92
2024-03-02T10:14:19.991Z,31.98
2024-03-02T10:18:08.317Z,31.45
2024-03-02T12:16:04.319Z,13.60
2024-03-02T12:19:10.246Z,15.00
2024-03-02T12:22:13.300Z,13.63
2024-03-02T12:25:17.144Z,14.18
2024-03-02T12:28:20.869Z,27.10
2024-03-02T12:31:23.628Z,17.02
2024-03-02T12:34:26.810Z,14.40
2024-03-02T12:37:30.401Z,14.10
2024-03-02T12:40:33.461Z,14.68
2024-03-02T12:43:36.299Z,17.92
2024-03-02T12:46:39.341Z,15.05
2024-03-02T12:49:42.629Z,16.10
2024-03-02T12:52:45.541Z,12.63
2024-03-02T12:55:48.424Z,15.55
2024-03-02T12:58:55.675Z,14.05
2024-03-02T13:01:59.273Z,12.90
2024-03-02T13:05:02.110Z,13.85
2024-03-02T13:08:06.110Z,18.00
2024-03-02T13:11:09.075Z,13.85
2024-03-02T13:14:15.191Z,15.82
2024-03-02T13:17:19.700Z,14.50
2024-03-02T13:20:24.269Z,15.52
2024-03-02T13:23:27.800Z,13.98
2024-03-02T13:26:30.600Z,12.38
2024-03-02T13:29:33.437Z,10.32
2024-03-02T13:32:36.363Z,13.20
2024-03-02T13:35:39.125Z,12.25
2024-03-02T13:38:41.919Z,13.38
2024-03-02T13:41:53.292Z,10.98
2024-03-02T13:44:56.334Z,10.95
2024-03-02T13:47:59.125Z,13.98
2024-03-02T13:51:02.093Z,13.05
2024-03-02T13:54:05.053Z,10.88
2024-03-02T13:57:09.122Z,11.55
2024-03-02T14:00:13.866Z,9.30
2024-03-02T14:03:17.251Z,11.98
2024-03-02T14:06:20.181Z,10.70
2024-03-02T14:09:24.589Z,9.75
2024-03-02T14:12:29.690Z,8.70
2024-03-02T14:15:32.848Z,10.63
2024-03-02T14:18:35.730Z,10.02
2024-03-02T14:21:38.988Z,10.60
2024-03-02T14:24:42.306Z,12.25
2024-03-02T14:28:07.276Z,9.88
2024-03-02T14:31:07.873Z,11.20
2024-03-02T14:34:10.732Z,10.65
2024-03-02T14:37:14.912Z,10.48
2024-03-02T14:40:17.683Z,9.65
2024-03-02T14:43:20.511Z,12.65
2024-03-02T14:46:23.412Z,10.85
2024-03-02T14:49:28.906Z,10.73
2024-03-02T14:52:31.674Z,13.52
2024-03-02T14:55:35.812Z,11.25
2024-03-02T14:58:38.705Z,10.00
2024-03-02T15:01:41.595Z,9.30
2024-03-02T15:04:46.301Z,12.10
2024-03-02T15:07:49.177Z,11.00
2024-03-02T15:10:52.125Z,11.00
2024-03-02T15:13:55.272Z,12.93
2024-03-02T15:16:59.136Z,14.07
2024-03-02T15:20:02.329Z,27.95
2024-03-02T15:23:05.446Z,42.58
2024-03-02T15:26:10.360Z,14.27
2024-03-02T15:29:13.324Z,13.05
2024-03-02T15:32:16.127Z,9.10
2024-03-02T15:35:19.072Z,10.73
2024-03-02T15:38:28.858Z,11.40
2024-03-02T15:41:36.287Z,10.20
2024-03-02T15:44:40.591Z,12.68
2024-03-02T15:47:44.498Z,11.90
2024-03-02T15:50:47.259Z,12.30
2024-03-02T15:53:50.100Z,11.70
2024-03-02T15:56:52.939Z,13.77
2024-03-02T15:59:55.758Z,18.20
2024-03-02T16:02:58.765Z,14.70
2024-03-02T16:06:01.679Z,13.85
2024-03-02T16:09:06.408Z,10.27
2024-03-02T16:12:09.368Z,14.52
2024-03-02T16:15:12.313Z,10.32
2024-03-02T16:18:15.098Z,11.77
2024-03-02T16:21:18.313Z,12.52
2024-03-02T16:24:21.356Z,15.80
2024-03-02T16:27:24.087Z,11.68
2024-03-02T16:30:27.323Z,11.20
2024-03-02T16:33:30.235Z,11.70
2024-03-02T16:36:36.144Z,14.30
2024-03-02T16:39:39.095Z,12.05
2024-03-02T16:42:42.281Z,14.05
2024-03-02T16:45:45.273Z,14.45
2024-03-02T16:48:48.246Z,18.80
2024-03-02T16:51:51.082Z,18.65
2024-03-02T16:54:54.168Z,21.05
2024-03-02T16:57:57.089Z,18.67
2024-03-02T17:01:00.366Z,17.48
2024-03-02T17:04:05.433Z,20.40
2024-03-02T17:07:08.670Z,18.58
2024-03-02T17:10:11.744Z,20.80
2024-03-02T17:13:14.785Z,22.42
2024-03-02T17:16:19.031Z,24.58
2024-03-02T17:19:22.025Z,23.58
2024-03-02T17:22:26.806Z,20.13
2024-03-02T17:25:29.670Z,19.58
2024-03-02T17:28:34.056Z,15.63
2024-03-02T17:31:37.014Z,16.23
2024-03-02T17:34:39.997Z,18.50
2024-03-02T17:37:42.816Z,17.40
2024-03-02T17:40:46.138Z,14.80
2024-03-02T17:43:48.979Z,13.48
2024-03-02T17:46:51.732Z,11.77
2024-03-02T17:49:54.602Z,9.68
2024-03-02T17:52:57.680Z,12.18
2024-03-02T17:56:00.580Z,9.02
2024-03-02T17:59:04.470Z,28.98
2024-03-02T18:02:08.302Z,34.47
2024-03-02T18:05:13.257Z,34.42
2024-03-02T18:08:16.662Z,15.40
2024-03-02T18:11:20.480Z,17.83
2024-03-02T18:14:23.682Z,12.93
2024-03-02T18:17:26.664Z,52.47
2024-03-02T18:20:29.563Z,21.08
2024-03-02T18:23:32.562Z,10.82
2024-03-02T18:26:36.286Z,8.73
2024-03-02T18:29:39.155Z,8.52
2024-03-02T18:32:42.096Z,8.00
2024-03-02T18:35:44.958Z,7.35
2024-03-02T18:38:47.816Z,7.13
2024-03-02T18:41:50.655Z,8.38
2024-03-02T18:44:53.633Z,7.93
2024-03-02T18:47:56.500Z,7.65
2024-03-02T18:51:07.700Z,8.93
2024-03-02T18:54:13.103Z,8.98
2024-03-02T18:57:15.993Z,8.88
2024-03-02T19:00:19.118Z,9.65
2024-03-02T19:03:22.005Z,8.73
2024-03-02T19:06:24.881Z,8.88
2024-03-02T19:09:27.806Z,9.18
2024-03-02T19:12:30.807Z,9.32
2024-03-02T19:15:33.752Z,9.00
2024-03-02T19:18:36.730Z,10.77
2024-03-02T19:21:39.965Z,10.32
2024-03-02T19:24:43.174Z,11.82
2024-03-02T19:27:46.047Z,10.55
2024-03-02T19:30:50.479Z,14.20
2024-03-02T19:33:53.408Z,13.25
2024-03-02T19:36:58.609Z,12.35
2024-03-02T19:40:01.390Z,15.02
2024-03-02T19:43:04.975Z,13.25
2024-03-02T19:46:07.786Z,14.10
2024-03-02T19:49:10.613Z,13.93
2024-03-02T19:52:13.649Z,12.93
2024-03-02T19:55:18.498Z,13.27
2024-03-02T19:58:21.680Z,13.02
2024-03-02T20:01:24.640Z,18.15
2024-03-02T20:04:27.526Z,16.67
2024-03-02T20:07:30.340Z,16.65
2024-03-02T20:10:33.035Z,15.38
2024-03-02T20:13:36.262Z,18.48
2024-03-02T20:16:39.185Z,17.92
2024-03-02T20:19:42.615Z,16.75
2024-03-02T20:22:47.022Z,15.45
2024-03-02T20:25:49.868Z,17.65
2024-03-02T20:28:55.607Z,16.55
2024-03-02T20:32:00.177Z,16.90
2024-03-02T20:35:02.992Z,15.95
2024-03-02T20:38:05.833Z,22.98
2024-03-02T20:41:21.432Z,17.35
2024-03-02T20:44:27.112Z,16.80
2024-03-02T20:47:31.123Z,15.27
2024-03-02T20:50:33.959Z,16.95
2024-03-02T20:53:36.850Z,18.45
2024-03-02T20:56:42.977Z,17.88
2024-03-02T20:59:45.813Z,17.63
2024-03-02T21:02:49.422Z,17.40
2024-03-02T21:05:52.405Z,20.20
2024-03-02T21:08:55.407Z,18.63
2024-03-02T21:11:58.310Z,18.02
2024-03-02T21:15:01.154Z,16.27
2024-03-02T21:18:04.391Z,19.10
2024-03-02T21:21:07.884Z,16.40
2024-03-02T21:24:10.681Z,20.55
2024-03-02T21:27:15.769Z,18.98
2024-03-02T21:30:20.535Z,18.35
2024-03-02T21:33:23.320Z,27.23
2024-03-02T21:36:26.168Z,18.10
2024-03-02T21:39:36.103Z,21.73
2024-03-02T21:42:42.721Z,32.42
2024-03-02T21:45:45.714Z,26.13
2024-03-02T21:48:53.139Z,22.40
2024-03-02T21:51:56.223Z,25.17
2024-03-02T21:54:59.009Z,21.30
2024-03-02T21:58:01.938Z,26.83
2024-03-02T22:01:05.110Z,23.27
2024-03-02T22:04:08.009Z,22.45
2024-03-02T22:07:10.924Z,21.50
2024-03-02T22:10:13.937Z,21.48
2024-03-02T22:13:18.089Z,22.10
2024-03-02T22:16:25.216Z,23.60
2024-03-02T22:19:27.896Z,21.67
2024-03-02T22:22:30.713Z,20.52
2024-03-02T22:25:33.450Z,16.15
2024-03-02T22:28:36.650Z,16.70
2024-03-02T22:31:39.302Z,16.73
2024-03-02T22:34:42.090Z,16.33
2024-03-02T22:37:45.226Z,18.13
2024-03-02T22:40:47.983Z,18.27
2024-03-02T22:43:50.842Z,18.88
2024-03-02T22:46:53.750Z,18.27
2024-03-02T22:49:57.133Z,21.17
2024-03-02T22:53:00.079Z,22.92
2024-03-02T22:56:03.059Z,17.92
2024-03-02T22:59:05.981Z,23.00
2024-03-02T23:02:08.738Z,19.90
2024-03-02T23:05:11.455Z,21.55
2024-03-02T23:08:14.152Z,21.98
2024-03-02T23:11:16.977Z,19.55
2024-03-02T23:14:19.873Z,19.10
2024-03-02T23:17:22.803Z,21.88
2024-03-02T23:20:26.358Z,21.33
2024-03-02T23:23:29.129Z,18.58
2024-03-02T23:26:32.040Z,19.15
2024-03-02T23:29:34.788Z,22.58
2024-03-02T23:32:37.652Z,20.38
2024-03-02T23:35:40.352Z,21.45
2024-03-02T23:38:43.194Z,18.42
2024-03-02T23:41:46.461Z,19.60
2024-03-02T23:44:49.214Z,20.13
2024-03-02T23:47:51.953Z,24.90
2024-03-02T23:50:54.665Z,21.70
2024-03-02T23:53:57.916Z,22.63
2024-03-02T23:57:00.536Z,20.98
